sensor_id;sensor_type;location;lat;lon;timestamp;P1;durP1;ratioP1;P2;durP2;ratioP2
74749;SDS011;63269;53.330;-6.288;2023-09-19T00:00:19;8.57;;;3.20;;
74749;SDS011;63269;53.330;-6.288;2023-09-19T00:02:53;7.47;;;3.40;;
74749;SDS011;63269;53.330;-6.288;2023-09-19T00:05:22;6.18;;;2.10;;
74749;SDS011;63269;53.330;-6.288;2023-09-19T00:07:52;6.32;;;2.40;;
74749;SDS011;63269;53.330;-6.288;2023-09-19T00:10:23;10.95;;;3.17;;
74749;SDS011;63269;53.330;-6.288;2023-09-19T00:12:53;9.00;;;3.17;;
74749;SDS011;63269;53.330;-6.288;2023-09-19T00:15:24;8.27;;;2.70;;
74749;SDS011;63269;53.330;-6.288;2023-09-19T00:17:56;7.45;;;2.17;;
74749;SDS011;63269;53.330;-6.288;2023-09-19T00:20:21;6.85;;;2.60;;
74749;SDS011;63269;53.330;-6.288;2023-09-19T00:22:51;10.00;;;3.38;;
74749;SDS011;63269;53.330;-6.288;2023-09-19T00:25:17;5.85;;;2.08;;
74749;SDS011;63269;53.330;-6.288;2023-09-19T00:27:43;10.63;;;2.33;;
74749;SDS011;63269;53.330;-6.288;2023-09-19T00:30:10;8.80;;;2.20;;
74749;SDS011;63269;53.330;-6.288;2023-09-19T00:32:39;6.35;;;2.38;;
74749;SDS011;63269;53.330;-6.288;2023-09-19T00:35:06;8.75;;;3.15;;
74749;SDS011;63269;53.330;-6.288;2023-09-19T00:37:34;8.23;;;2.20;;
74749;SDS011;63269;53.330;-6.288;2023-09-19T00:39:59;9.48;;;2.72;;
74749;SDS011;63269;53.330;-6.288;2023-09-19T00:42:24;7.20;;;2.60;;
74749;SDS011;63269;53.330;-6.288;2023-09-19T00:44:50;7.03;;;2.28;;
74749;SDS011;63269;53.330;-6.288;2023-09-19T00:47:17;9.13;;;2.60;;
74749;SDS011;63269;53.330;-6.288;2023-09-19T00:49:46;9.48;;;2.28;;
74749;SDS011;63269;53.330;-6.288;2023-09-19T00:52:15;6.45;;;2.78;;
74749;SDS011;63269;53.330;-6.288;2023-09-19T00:54:41;7.40;;;2.67;;
74749;SDS011;63269;53.330;-6.288;2023-09-19T00:57:06;10.23;;;3.00;;
74749;SDS011;63269;53.330;-6.288;2023-09-19T00:59:33;5.85;;;2.40;;
74749;SDS011;63269;53.330;-6.288;2023-09-19T01:02:01;6.18;;;2.13;;
74749;SDS011;63269;53.330;-6.288;2023-09-19T01:04:28;8.45;;;2.10;;
74749;SDS011;63269;53.330;-6.288;2023-09-19T01:06:53;9.60;;;3.30;;
74749;SDS011;63269;53.330;-6.288;2023-09-19T01:09:19;8.93;;;2.63;;
74749;SDS011;63269;53.330;-6.288;2023-09-19T01:11:47;7.50;;;2.30;;
74749;SDS011;63269;53.330;-6.288;2023-09-19T01:25:49;7.57;;;2.55;;
74749;SDS011;63269;53.330;-6.288;2023-09-19T01:31:28;6.45;;;2.58;;
74749;SDS011;63269;53.330;-6.288;2023-09-19T01:33:59;6.13;;;1.75;;
74749;SDS011;63269;53.330;-6.288;2023-09-19T01:36:27;8.32;;;2.38;;
74749;SDS011;63269;53.330;-6.288;2023-09-19T01:38:54;8.48;;;2.30;;
74749;SDS011;63269;53.330;-6.288;2023-09-19T01:41:30;9.68;;;2.60;;
74749;SDS011;63269;53.330;-6.288;2023-09-19T01:44:05;7.13;;;2.30;;
74749;SDS011;63269;53.330;-6.288;2023-09-19T01:46:34;7.32;;;2.60;;
74749;SDS011;63269;53.330;-6.288;2023-09-19T01:49:14;5.43;;;2.00;;
74749;SDS011;63269;53.330;-6.288;2023-09-19T01:51:59;8.48;;;2.10;;
74749;SDS011;63269;53.330;-6.288;2023-09-19T01:57:28;6.85;;;1.90;;
74749;SDS011;63269;53.330;-6.288;2023-09-19T02:00:00;6.03;;;2.00;;
74749;SDS011;63269;53.330;-6.288;2023-09-19T02:02:34;5.00;;;1.80;;
74749;SDS011;63269;53.330;-6.288;2023-09-19T02:05:01;4.90;;;1.90;;
74749;SDS011;63269;53.330;-6.288;2023-09-19T02:07:29;5.28;;;1.83;;
74749;SDS011;63269;53.330;-6.288;2023-09-19T02:09:57;5.85;;;1.83;;
74749;SDS011;63269;53.330;-6.288;2023-09-19T02:12:24;5.43;;;1.92;;
74749;SDS011;63269;53.330;-6.288;2023-09-19T02:14:49;4.13;;;1.90;;
74749;SDS011;63269;53.330;-6.288;2023-09-19T02:17:14;4.82;;;1.70;;
74749;SDS011;63269;53.330;-6.288;2023-09-19T02:19:40;4.47;;;1.60;;
74749;SDS011;63269;53.330;-6.288;2023-09-19T02:22:06;5.85;;;1.63;;
74749;SDS011;63269;53.330;-6.288;2023-09-19T02:24:33;5.18;;;2.67;;
74749;SDS011;63269;53.330;-6.288;2023-09-19T02:26:58;6.97;;;2.60;;
74749;SDS011;63269;53.330;-6.288;2023-09-19T02:29:28;5.80;;;1.95;;
74749;SDS011;63269;53.330;-6.288;2023-09-19T02:31:54;4.93;;;1.90;;
74749;SDS011;63269;53.330;-6.288;2023-09-19T02:34:21;5.63;;;1.63;;
74749;SDS011;63269;53.330;-6.288;2023-09-19T02:36:46;5.97;;;1.83;;
74749;SDS011;63269;53.330;-6.288;2023-09-19T02:39:12;4.75;;;1.40;;
74749;SDS011;63269;53.330;-6.288;2023-09-19T02:41:38;6.32;;;1.70;;
74749;SDS011;63269;53.330;-6.288;2023-09-19T02:44:03;5.45;;;1.60;;
74749;SDS011;63269;53.330;-6.288;2023-09-19T02:46:32;5.20;;;2.57;;
74749;SDS011;63269;53.330;-6.288;2023-09-19T02:48:58;5.45;;;1.63;;
74749;SDS011;63269;53.330;-6.288;2023-09-19T02:51:24;3.63;;;2.03;;
74749;SDS011;63269;53.330;-6.288;2023-09-19T02:53:50;5.13;;;1.65;;
74749;SDS011;63269;53.330;-6.288;2023-09-19T02:56:17;4.22;;;2.20;;
74749;SDS011;63269;53.330;-6.288;2023-09-19T02:58:43;5.28;;;1.92;;
74749;SDS011;63269;53.330;-6.288;2023-09-19T03:01:12;6.10;;;2.95;;
74749;SDS011;63269;53.330;-6.288;2023-09-19T03:03:37;4.28;;;1.83;;
74749;SDS011;63269;53.330;-6.288;2023-09-19T03:06:04;5.30;;;2.03;;
74749;SDS011;63269;53.330;-6.288;2023-09-19T03:11:02;4.68;;;1.95;;
74749;SDS011;63269;53.330;-6.288;2023-09-19T03:13:30;5.05;;;1.60;;
74749;SDS011;63269;53.330;-6.288;2023-09-19T03:15:59;4.80;;;2.03;;
74749;SDS011;63269;53.330;-6.288;2023-09-19T03:18:24;4.22;;;2.35;;
74749;SDS011;63269;53.330;-6.288;2023-09-19T03:20:54;2.95;;;1.55;;
74749;SDS011;63269;53.330;-6.288;2023-09-19T03:23:21;4.20;;;1.67;;
74749;SDS011;63269;53.330;-6.288;2023-09-19T03:25:47;2.67;;;1.48;;
74749;SDS011;63269;53.330;-6.288;2023-09-19T03:28:13;4.75;;;1.60;;
74749;SDS011;63269;53.330;-6.288;2023-09-19T03:30:40;3.55;;;1.50;;
74749;SDS011;63269;53.330;-6.288;2023-09-19T03:33:05;5.15;;;1.58;;
74749;SDS011;63269;53.330;-6.288;2023-09-19T03:35:31;5.43;;;1.88;;
74749;SDS011;63269;53.330;-6.288;2023-09-19T03:37:56;4.00;;;1.63;;
74749;SDS011;63269;53.330;-6.288;2023-09-19T03:40:23;5.63;;;1.85;;
74749;SDS011;63269;53.330;-6.288;2023-09-19T03:42:48;4.20;;;1.85;;
74749;SDS011;63269;53.330;-6.288;2023-09-19T03:45:14;4.07;;;1.45;;
74749;SDS011;63269;53.330;-6.288;2023-09-19T03:47:41;3.05;;;1.48;;
74749;SDS011;63269;53.330;-6.288;2023-09-19T03:50:06;4.22;;;1.73;;
74749;SDS011;63269;53.330;-6.288;2023-09-19T03:52:33;3.83;;;1.83;;
74749;SDS011;63269;53.330;-6.288;2023-09-19T03:54:59;2.78;;;1.40;;
74749;SDS011;63269;53.330;-6.288;2023-09-19T03:57:26;3.30;;;1.80;;
74749;SDS011;63269;53.330;-6.288;2023-09-19T03:59:51;3.55;;;1.60;;
74749;SDS011;63269;53.330;-6.288;2023-09-19T04:02:18;2.83;;;1.42;;
74749;SDS011;63269;53.330;-6.288;2023-09-19T04:04:50;4.05;;;1.40;;
74749;SDS011;63269;53.330;-6.288;2023-09-19T04:07:17;3.28;;;1.60;;
74749;SDS011;63269;53.330;-6.288;2023-09-19T04:09:44;3.05;;;1.52;;
74749;SDS011;63269;53.330;-6.288;2023-09-19T04:12:11;3.03;;;1.42;;
74749;SDS011;63269;53.330;-6.288;2023-09-19T04:14:37;3.63;;;1.40;;
74749;SDS011;63269;53.330;-6.288;2023-09-19T04:17:03;3.53;;;1.50;;
74749;SDS011;63269;53.330;-6.288;2023-09-19T04:19:30;3.60;;;1.48;;
74749;SDS011;63269;53.330;-6.288;2023-09-19T04:21:55;3.88;;;1.50;;
74749;SDS011;63269;53.330;-6.288;2023-09-19T04:24:21;4.00;;;1.48;;
74749;SDS011;63269;53.330;-6.288;2023-09-19T04:26:46;2.65;;;1.30;;
74749;SDS011;63269;53.330;-6.288;2023-09-19T04:29:12;4.40;;;1.58;;
74749;SDS011;63269;53.330;-6.288;2023-09-19T04:31:39;3.50;;;1.45;;
74749;SDS011;63269;53.330;-6.288;2023-09-19T04:34:05;3.10;;;1.13;;
74749;SDS011;63269;53.330;-6.288;2023-09-19T04:36:31;3.15;;;1.60;;
74749;SDS011;63269;53.330;-6.288;2023-09-19T04:38:56;2.80;;;1.50;;
74749;SDS011;63269;53.330;-6.288;2023-09-19T04:41:22;2.97;;;1.45;;
74749;SDS011;63269;53.330;-6.288;2023-09-19T04:43:48;2.92;;;1.45;;
74749;SDS011;63269;53.330;-6.288;2023-09-19T04:46:15;2.78;;;1.13;;
74749;SDS011;63269;53.330;-6.288;2023-09-19T04:48:42;2.90;;;1.30;;
74749;SDS011;63269;53.330;-6.288;2023-09-19T04:51:08;4.38;;;1.55;;
74749;SDS011;63269;53.330;-6.288;2023-09-19T04:53:33;3.15;;;1.40;;
74749;SDS011;63269;53.330;-6.288;2023-09-19T04:55:59;5.00;;;1.52;;
74749;SDS011;63269;53.330;-6.288;2023-09-19T04:58:24;1.73;;;1.10;;
74749;SDS011;63269;53.330;-6.288;2023-09-19T05:00:49;2.83;;;1.30;;
74749;SDS011;63269;53.330;-6.288;2023-09-19T05:03:16;2.97;;;1.10;;
74749;SDS011;63269;53.330;-6.288;2023-09-19T05:05:42;2.25;;;1.00;;
74749;SDS011;63269;53.330;-6.288;2023-09-19T05:08:07;3.67;;;1.25;;
74749;SDS011;63269;53.330;-6.288;2023-09-19T05:10:34;2.35;;;1.05;;
74749;SDS011;63269;53.330;-6.288;2023-09-19T05:13:03;1.63;;;0.98;;
74749;SDS011;63269;53.330;-6.288;2023-09-19T05:15:29;2.72;;;1.63;;
74749;SDS011;63269;53.330;-6.288;2023-09-19T05:17:55;3.08;;;1.00;;
74749;SDS011;63269;53.330;-6.288;2023-09-19T05:20:21;3.17;;;1.48;;
74749;SDS011;63269;53.330;-6.288;2023-09-19T05:23:04;2.78;;;1.27;;
74749;SDS011;63269;53.330;-6.288;2023-09-19T05:25:33;2.65;;;1.65;;
74749;SDS011;63269;53.330;-6.288;2023-09-19T05:28:02;3.17;;;1.00;;
74749;SDS011;63269;53.330;-6.288;2023-09-19T05:30:28;2.05;;;0.95;;
74749;SDS011;63269;53.330;-6.288;2023-09-19T05:32:54;2.25;;;1.05;;
74749;SDS011;63269;53.330;-6.288;2023-09-19T05:35:21;2.97;;;1.48;;
74749;SDS011;63269;53.330;-6.288;2023-09-19T05:37:47;2.00;;;1.00;;
74749;SDS011;63269;53.330;-6.288;2023-09-19T05:40:16;2.78;;;1.30;;
74749;SDS011;63269;53.330;-6.288;2023-09-19T05:42:42;3.00;;;1.33;;
74749;SDS011;63269;53.330;-6.288;2023-09-19T05:45:09;1.90;;;0.90;;
74749;SDS011;63269;53.330;-6.288;2023-09-19T05:47:38;2.13;;;0.90;;
74749;SDS011;63269;53.330;-6.288;2023-09-19T05:50:05;3.67;;;1.23;;
74749;SDS011;63269;53.330;-6.288;2023-09-19T05:52:34;2.10;;;0.80;;
74749;SDS011;63269;53.330;-6.288;2023-09-19T05:55:06;3.10;;;1.35;;
74749;SDS011;63269;53.330;-6.288;2023-09-19T05:57:33;1.65;;;0.60;;
74749;SDS011;63269;53.330;-6.288;2023-09-19T05:59:59;2.10;;;1.15;;
74749;SDS011;63269;53.330;-6.288;2023-09-19T06:02:24;2.38;;;0.90;;
74749;SDS011;63269;53.330;-6.288;2023-09-19T06:04:54;1.87;;;0.77;;
74749;SDS011;63269;53.330;-6.288;2023-09-19T06:07:20;2.05;;;0.80;;
74749;SDS011;63269;53.330;-6.288;2023-09-19T06:09:47;1.52;;;0.85;;
74749;SDS011;63269;53.330;-6.288;2023-09-19T06:12:12;1.50;;;0.80;;
74749;SDS011;63269;53.330;-6.288;2023-09-19T06:14:40;2.42;;;1.00;;
74749;SDS011;63269;53.330;-6.288;2023-09-19T06:17:06;0.98;;;0.60;;
74749;SDS011;63269;53.330;-6.288;2023-09-19T06:19:31;2.40;;;0.90;;
74749;SDS011;63269;53.330;-6.288;2023-09-19T06:21:58;1.13;;;0.70;;
74749;SDS011;63269;53.330;-6.288;2023-09-19T06:24:24;2.13;;;0.80;;
74749;SDS011;63269;53.330;-6.288;2023-09-19T06:26:50;2.45;;;0.85;;
74749;SDS011;63269;53.330;-6.288;2023-09-19T06:29:17;0.88;;;0.60;;
74749;SDS011;63269;53.330;-6.288;2023-09-19T06:31:43;1.42;;;0.75;;
74749;SDS011;63269;53.330;-6.288;2023-09-19T06:34:09;1.45;;;0.70;;
74749;SDS011;63269;53.330;-6.288;2023-09-19T06:36:35;1.85;;;0.82;;
74749;SDS011;63269;53.330;-6.288;2023-09-19T06:39:00;1.27;;;0.57;;
74749;SDS011;63269;53.330;-6.288;2023-09-19T06:41:27;1.80;;;0.60;;
74749;SDS011;63269;53.330;-6.288;2023-09-19T06:43:52;1.30;;;0.73;;
74749;SDS011;63269;53.330;-6.288;2023-09-19T06:46:18;1.38;;;0.60;;
74749;SDS011;63269;53.330;-6.288;2023-09-19T06:48:44;1.38;;;0.50;;
74749;SDS011;63269;53.330;-6.288;2023-09-19T06:51:12;1.00;;;0.50;;
74749;SDS011;63269;53.330;-6.288;2023-09-19T06:53:37;2.55;;;0.70;;
74749;SDS011;63269;53.330;-6.288;2023-09-19T06:56:06;0.50;;;0.30;;
74749;SDS011;63269;53.330;-6.288;2023-09-19T06:58:31;0.80;;;0.50;;
74749;SDS011;63269;53.330;-6.288;2023-09-19T07:00:56;1.13;;;0.50;;
74749;SDS011;63269;53.330;-6.288;2023-09-19T07:03:22;1.02;;;0.40;;
74749;SDS011;63269;53.330;-6.288;2023-09-19T07:05:51;1.05;;;0.50;;
74749;SDS011;63269;53.330;-6.288;2023-09-19T07:08:17;0.63;;;0.30;;
74749;SDS011;63269;53.330;-6.288;2023-09-19T07:10:43;0.88;;;0.50;;
74749;SDS011;63269;53.330;-6.288;2023-09-19T07:13:13;0.98;;;0.68;;
74749;SDS011;63269;53.330;-6.288;2023-09-19T07:15:42;0.75;;;0.32;;
74749;SDS011;63269;53.330;-6.288;2023-09-19T07:18:17;0.90;;;0.45;;
74749;SDS011;63269;53.330;-6.288;2023-09-19T07:20:43;0.77;;;0.30;;
74749;SDS011;63269;53.330;-6.288;2023-09-19T07:23:19;0.90;;;0.30;;
74749;SDS011;63269;53.330;-6.288;2023-09-19T07:25:46;0.60;;;0.28;;
74749;SDS011;63269;53.330;-6.288;2023-09-19T07:28:13;0.63;;;0.20;;
74749;SDS011;63269;53.330;-6.288;2023-09-19T07:30:39;2.33;;;0.40;;
74749;SDS011;63269;53.330;-6.288;2023-09-19T07:33:06;0.82;;;0.22;;
74749;SDS011;63269;53.330;-6.288;2023-09-19T07:35:32;0.47;;;0.28;;
74749;SDS011;63269;53.330;-6.288;2023-09-19T07:37:58;2.40;;;0.30;;
74749;SDS011;63269;53.330;-6.288;2023-09-19T07:40:26;1.35;;;0.40;;
74749;SDS011;63269;53.330;-6.288;2023-09-19T07:42:54;0.88;;;0.43;;
74749;SDS011;63269;53.330;-6.288;2023-09-19T07:45:20;1.88;;;0.55;;
74749;SDS011;63269;53.330;-6.288;2023-09-19T07:47:46;1.42;;;0.32;;
74749;SDS011;63269;53.330;-6.288;2023-09-19T07:50:12;4.22;;;0.70;;
74749;SDS011;63269;53.330;-6.288;2023-09-19T07:52:38;5.95;;;0.57;;
74749;SDS011;63269;53.330;-6.288;2023-09-19T07:55:07;0.70;;;0.50;;
74749;SDS011;63269;53.330;-6.288;2023-09-19T07:57:37;1.42;;;0.40;;
74749;SDS011;63269;53.330;-6.288;2023-09-19T08:00:03;0.93;;;0.40;;
74749;SDS011;63269;53.330;-6.288;2023-09-19T08:02:35;1.20;;;0.63;;
74749;SDS011;63269;53.330;-6.288;2023-09-19T08:05:03;1.60;;;0.35;;
74749;SDS011;63269;53.330;-6.288;2023-09-19T08:07:32;6.28;;;0.55;;
74749;SDS011;63269;53.330;-6.288;2023-09-19T08:09:57;1.35;;;0.40;;
74749;SDS011;63269;53.330;-6.288;2023-09-19T08:12:24;1.00;;;0.32;;
74749;SDS011;63269;53.330;-6.288;2023-09-19T08:14:49;1.77;;;0.40;;
74749;SDS011;63269;53.330;-6.288;2023-09-19T08:17:15;5.60;;;0.40;;
74749;SDS011;63269;53.330;-6.288;2023-09-19T08:19:41;2.03;;;0.30;;
74749;SDS011;63269;53.330;-6.288;2023-09-19T08:22:07;3.13;;;0.55;;
74749;SDS011;63269;53.330;-6.288;2023-09-19T08:24:35;2.45;;;0.40;;
74749;SDS011;63269;53.330;-6.288;2023-09-19T08:27:01;1.75;;;0.45;;
74749;SDS011;63269;53.330;-6.288;2023-09-19T08:29:29;1.55;;;0.60;;
74749;SDS011;63269;53.330;-6.288;2023-09-19T08:31:56;4.40;;;0.60;;
74749;SDS011;63269;53.330;-6.288;2023-09-19T08:34:23;3.40;;;0.50;;
74749;SDS011;63269;53.330;-6.288;2023-09-19T08:36:52;1.58;;;0.88;;
74749;SDS011;63269;53.330;-6.288;2023-09-19T08:39:22;6.75;;;1.02;;
74749;SDS011;63269;53.330;-6.288;2023-09-19T08:41:48;5.25;;;0.95;;
74749;SDS011;63269;53.330;-6.288;2023-09-19T08:44:14;10.93;;;0.70;;
74749;SDS011;63269;53.330;-6.288;2023-09-19T08:46:41;7.30;;;1.13;;
74749;SDS011;63269;53.330;-6.288;2023-09-19T08:49:53;5.68;;;0.88;;
74749;SDS011;63269;53.330;-6.288;2023-09-19T08:52:07;1.88;;;0.55;;
74749;SDS011;63269;53.330;-6.288;2023-09-19T08:54:39;4.35;;;0.50;;
74749;SDS011;63269;53.330;-6.288;2023-09-19T08:57:06;3.92;;;0.68;;
74749;SDS011;63269;53.330;-6.288;2023-09-19T08:59:36;1.38;;;0.43;;
74749;SDS011;63269;53.330;-6.288;2023-09-19T09:02:08;3.13;;;0.77;;
74749;SDS011;63269;53.330;-6.288;2023-09-19T09:04:38;4.47;;;0.95;;
74749;SDS011;63269;53.330;-6.288;2023-09-19T09:07:05;1.05;;;0.30;;
74749;SDS011;63269;53.330;-6.288;2023-09-19T09:09:44;2.80;;;0.60;;
74749;SDS011;63269;53.330;-6.288;2023-09-19T09:12:13;3.53;;;0.40;;
74749;SDS011;63269;53.330;-6.288;2023-09-19T09:14:48;4.88;;;0.60;;
74749;SDS011;63269;53.330;-6.288;2023-09-19T09:17:15;4.47;;;0.75;;
74749;SDS011;63269;53.330;-6.288;2023-09-19T09:19:41;3.88;;;0.68;;
74749;SDS011;63269;53.330;-6.288;2023-09-19T09:22:08;7.50;;;0.50;;
74749;SDS011;63269;53.330;-6.288;2023-09-19T09:24:35;4.22;;;0.55;;
74749;SDS011;63269;53.330;-6.288;2023-09-19T09:27:06;0.82;;;0.30;;
74749;SDS011;63269;53.330;-6.288;2023-09-19T09:29:40;1.73;;;0.32;;
74749;SDS011;63269;53.330;-6.288;2023-09-19T09:32:19;2.08;;;0.43;;
74749;SDS011;63269;53.330;-6.288;2023-09-19T09:34:50;0.88;;;0.50;;
74749;SDS011;63269;53.330;-6.288;2023-09-19T09:37:16;1.42;;;0.38;;
74749;SDS011;63269;53.330;-6.288;2023-09-19T09:39:50;1.67;;;0.40;;
74749;SDS011;63269;53.330;-6.288;2023-09-19T09:42:30;2.47;;;0.38;;
74749;SDS011;63269;53.330;-6.288;2023-09-19T09:48:00;1.27;;;0.40;;
74749;SDS011;63269;53.330;-6.288;2023-09-19T09:50:32;0.55;;;0.25;;
74749;SDS011;63269;53.330;-6.288;2023-09-19T09:53:22;1.38;;;0.30;;
74749;SDS011;63269;53.330;-6.288;2023-09-19T09:58:48;1.40;;;0.38;;
74749;SDS011;63269;53.330;-6.288;2023-09-19T10:01:16;2.35;;;0.50;;
74749;SDS011;63269;53.330;-6.288;2023-09-19T10:03:43;1.55;;;0.30;;
74749;SDS011;63269;53.330;-6.288;2023-09-19T10:06:16;1.70;;;0.38;;
74749;SDS011;63269;53.330;-6.288;2023-09-19T10:11:44;0.52;;;0.20;;
74749;SDS011;63269;53.330;-6.288;2023-09-19T10:14:12;0.80;;;0.20;;
74749;SDS011;63269;53.330;-6.288;2023-09-19T10:16:40;3.58;;;0.60;;
74749;SDS011;63269;53.330;-6.288;2023-09-19T10:19:11;0.70;;;0.25;;
74749;SDS011;63269;53.330;-6.288;2023-09-19T10:24:08;1.05;;;0.20;;
74749;SDS011;63269;53.330;-6.288;2023-09-19T10:26:34;0.73;;;0.30;;
74749;SDS011;63269;53.330;-6.288;2023-09-19T10:29:01;0.80;;;0.52;;
74749;SDS011;63269;53.330;-6.288;2023-09-19T10:31:32;1.10;;;0.20;;
74749;SDS011;63269;53.330;-6.288;2023-09-19T10:34:02;1.20;;;0.30;;
74749;SDS011;63269;53.330;-6.288;2023-09-19T10:36:32;0.95;;;0.20;;
74749;SDS011;63269;53.330;-6.288;2023-09-19T10:39:00;0.97;;;0.40;;
74749;SDS011;63269;53.330;-6.288;2023-09-19T10:41:32;0.50;;;0.22;;
74749;SDS011;63269;53.330;-6.288;2023-09-19T10:44:02;1.63;;;0.28;;
74749;SDS011;63269;53.330;-6.288;2023-09-19T10:46:31;0.30;;;0.10;;
74749;SDS011;63269;53.330;-6.288;2023-09-19T10:49:01;1.55;;;0.50;;
74749;SDS011;63269;53.330;-6.288;2023-09-19T10:51:29;0.57;;;0.30;;
74749;SDS011;63269;53.330;-6.288;2023-09-19T10:54:08;0.45;;;0.28;;
74749;SDS011;63269;53.330;-6.288;2023-09-19T10:56:38;0.40;;;0.20;;
74749;SDS011;63269;53.330;-6.288;2023-09-19T10:59:14;1.55;;;0.55;;
74749;SDS011;63269;53.330;-6.288;2023-09-19T11:09:55;0.40;;;0.20;;
74749;SDS011;63269;53.330;-6.288;2023-09-19T11:15:03;0.52;;;0.30;;
74749;SDS011;63269;53.330;-6.288;2023-09-19T11:17:36;0.33;;;0.20;;
74749;SDS011;63269;53.330;-6.288;2023-09-19T11:30:34;0.40;;;0.10;;
74749;SDS011;63269;53.330;-6.288;2023-09-19T11:33:23;0.22;;;0.20;;
74749;SDS011;63269;53.330;-6.288;2023-09-19T11:39:01;0.63;;;0.20;;
74749;SDS011;63269;53.330;-6.288;2023-09-19T11:41:36;0.28;;;0.20;;
74749;SDS011;63269;53.330;-6.288;2023-09-19T11:49:16;0.82;;;0.17;;
74749;SDS011;63269;53.330;-6.288;2023-09-19T11:51:45;0.32;;;0.13;;
74749;SDS011;63269;53.330;-6.288;2023-09-19T11:54:12;0.50;;;0.20;;
74749;SDS011;63269;53.330;-6.288;2023-09-19T11:56:51;0.30;;;0.20;;
74749;SDS011;63269;53.330;-6.288;2023-09-19T11:59:25;0.30;;;0.15;;
74749;SDS011;63269;53.330;-6.288;2023-09-19T12:01:58;0.55;;;0.20;;
74749;SDS011;63269;53.330;-6.288;2023-09-19T12:04:38;0.30;;;0.20;;
74749;SDS011;63269;53.330;-6.288;2023-09-19T12:07:08;0.80;;;0.17;;
74749;SDS011;63269;53.330;-6.288;2023-09-19T12:10:02;0.98;;;0.40;;
74749;SDS011;63269;53.330;-6.288;2023-09-19T12:12:29;0.47;;;0.20;;
74749;SDS011;63269;53.330;-6.288;2023-09-19T12:14:55;0.77;;;0.20;;
74749;SDS011;63269;53.330;-6.288;2023-09-19T12:17:46;0.70;;;0.40;;
74749;SDS011;63269;53.330;-6.288;2023-09-19T12:20:13;0.38;;;0.10;;
74749;SDS011;63269;53.330;-6.288;2023-09-19T12:22:45;0.35;;;0.10;;
74749;SDS011;63269;53.330;-6.288;2023-09-19T12:25:12;0.90;;;0.20;;
74749;SDS011;63269;53.330;-6.288;2023-09-19T12:27:42;0.40;;;0.10;;
74749;SDS011;63269;53.330;-6.288;2023-09-19T12:30:09;1.48;;;0.30;;
74749;SDS011;63269;53.330;-6.288;2023-09-19T12:32:39;0.20;;;0.10;;
74749;SDS011;63269;53.330;-6.288;2023-09-19T12:35:05;0.57;;;0.20;;
74749;SDS011;63269;53.330;-6.288;2023-09-19T12:37:36;0.38;;;0.35;;
74749;SDS011;63269;53.330;-6.288;2023-09-19T12:40:05;0.25;;;0.20;;
74749;SDS011;63269;53.330;-6.288;2023-09-19T12:42:50;0.77;;;0.20;;
74749;SDS011;63269;53.330;-6.288;2023-09-19T12:45:18;0.45;;;0.25;;
74749;SDS011;63269;53.330;-6.288;2023-09-19T12:51:01;0.40;;;0.20;;
74749;SDS011;63269;53.330;-6.288;2023-09-19T12:53:39;0.80;;;0.30;;
74749;SDS011;63269;53.330;-6.288;2023-09-19T12:56:07;0.60;;;0.20;;
74749;SDS011;63269;53.330;-6.288;2023-09-19T12:58:47;1.95;;;0.20;;
74749;SDS011;63269;53.330;-6.288;2023-09-19T13:01:14;0.47;;;0.30;;
74749;SDS011;63269;53.330;-6.288;2023-09-19T13:03:41;0.40;;;0.20;;
74749;SDS011;63269;53.330;-6.288;2023-09-19T13:06:07;0.43;;;0.20;;
74749;SDS011;63269;53.330;-6.288;2023-09-19T13:08:35;0.43;;;0.40;;
74749;SDS011;63269;53.330;-6.288;2023-09-19T13:11:07;0.47;;;0.22;;
74749;SDS011;63269;53.330;-6.288;2023-09-19T13:13:37;0.40;;;0.20;;
74749;SDS011;63269;53.330;-6.288;2023-09-19T13:16:04;0.80;;;0.30;;
74749;SDS011;63269;53.330;-6.288;2023-09-19T13:21:10;0.50;;;0.20;;
74749;SDS011;63269;53.330;-6.288;2023-09-19T13:24:01;0.50;;;0.20;;
74749;SDS011;63269;53.330;-6.288;2023-09-19T13:26:46;0.77;;;0.20;;
74749;SDS011;63269;53.330;-6.288;2023-09-19T13:29:11;0.95;;;0.30;;
74749;SDS011;63269;53.330;-6.288;2023-09-19T13:31:37;0.43;;;0.30;;
74749;SDS011;63269;53.330;-6.288;2023-09-19T13:34:06;0.80;;;0.20;;
74749;SDS011;63269;53.330;-6.288;2023-09-19T13:36:32;0.28;;;0.20;;
74749;SDS011;63269;53.330;-6.288;2023-09-19T13:38:58;0.73;;;0.25;;
74749;SDS011;63269;53.330;-6.288;2023-09-19T13:41:25;0.65;;;0.20;;
74749;SDS011;63269;53.330;-6.288;2023-09-19T13:43:51;0.40;;;0.20;;
74749;SDS011;63269;53.330;-6.288;2023-09-19T13:46:16;1.13;;;0.30;;
74749;SDS011;63269;53.330;-6.288;2023-09-19T13:48:50;0.65;;;0.32;;
74749;SDS011;63269;53.330;-6.288;2023-09-19T13:51:15;0.50;;;0.22;;
74749;SDS011;63269;53.330;-6.288;2023-09-19T13:53:41;0.40;;;0.20;;
74749;SDS011;63269;53.330;-6.288;2023-09-19T13:56:07;0.50;;;0.10;;
74749;SDS011;63269;53.330;-6.288;2023-09-19T13:58:33;0.35;;;0.20;;
74749;SDS011;63269;53.330;-6.288;2023-09-19T14:00:58;0.57;;;0.20;;
74749;SDS011;63269;53.330;-6.288;2023-09-19T14:03:25;0.88;;;0.40;;
74749;SDS011;63269;53.330;-6.288;2023-09-19T14:05:53;1.05;;;0.32;;
74749;SDS011;63269;53.330;-6.288;2023-09-19T14:08:19;0.43;;;0.20;;
74749;SDS011;63269;53.330;-6.288;2023-09-19T14:10:44;0.47;;;0.30;;
74749;SDS011;63269;53.330;-6.288;2023-09-19T14:13:10;1.10;;;0.30;;
74749;SDS011;63269;53.330;-6.288;2023-09-19T14:15:38;1.40;;;0.30;;
74749;SDS011;63269;53.330;-6.288;2023-09-19T14:18:03;1.35;;;0.30;;
74749;SDS011;63269;53.330;-6.288;2023-09-19T14:20:29;0.95;;;0.43;;
74749;SDS011;63269;53.330;-6.288;2023-09-19T14:22:55;1.40;;;0.35;;
74749;SDS011;63269;53.330;-6.288;2023-09-19T14:25:23;0.82;;;0.40;;
74749;SDS011;63269;53.330;-6.288;2023-09-19T14:27:49;0.68;;;0.30;;
74749;SDS011;63269;53.330;-6.288;2023-09-19T14:30:15;0.73;;;0.30;;
74749;SDS011;63269;53.330;-6.288;2023-09-19T14:32:40;0.88;;;0.38;;
74749;SDS011;63269;53.330;-6.288;2023-09-19T14:35:06;0.50;;;0.25;;
74749;SDS011;63269;53.330;-6.288;2023-09-19T14:37:34;1.15;;;0.32;;
74749;SDS011;63269;53.330;-6.288;2023-09-19T14:40:00;1.20;;;0.30;;
74749;SDS011;63269;53.330;-6.288;2023-09-19T14:42:28;0.95;;;0.40;;
74749;SDS011;63269;53.330;-6.288;2023-09-19T14:44:53;2.33;;;0.50;;
74749;SDS011;63269;53.330;-6.288;2023-09-19T14:47:19;0.52;;;0.30;;
74749;SDS011;63269;53.330;-6.288;2023-09-19T14:49:44;0.80;;;0.40;;
74749;SDS011;63269;53.330;-6.288;2023-09-19T14:52:11;1.98;;;0.40;;
74749;SDS011;63269;53.330;-6.288;2023-09-19T14:54:37;1.52;;;0.60;;
74749;SDS011;63269;53.330;-6.288;2023-09-19T14:57:06;1.30;;;0.63;;
74749;SDS011;63269;53.330;-6.288;2023-09-19T14:59:33;1.75;;;0.55;;
74749;SDS011;63269;53.330;-6.288;2023-09-19T15:02:02;1.42;;;0.52;;
74749;SDS011;63269;53.330;-6.288;2023-09-19T15:04:31;1.95;;;0.60;;
74749;SDS011;63269;53.330;-6.288;2023-09-19T15:06:58;2.10;;;0.70;;
74749;SDS011;63269;53.330;-6.288;2023-09-19T15:09:24;2.17;;;1.00;;
74749;SDS011;63269;53.330;-6.288;2023-09-19T15:11:54;2.13;;;0.70;;
74749;SDS011;63269;53.330;-6.288;2023-09-19T15:14:23;3.38;;;1.30;;
74749;SDS011;63269;53.330;-6.288;2023-09-19T15:16:50;2.38;;;0.90;;
74749;SDS011;63269;53.330;-6.288;2023-09-19T15:19:15;2.25;;;1.00;;
74749;SDS011;63269;53.330;-6.288;2023-09-19T15:21:43;2.97;;;1.10;;
74749;SDS011;63269;53.330;-6.288;2023-09-19T15:24:09;2.30;;;1.33;;
74749;SDS011;63269;53.330;-6.288;2023-09-19T15:26:35;5.88;;;1.30;;
74749;SDS011;63269;53.330;-6.288;2023-09-19T15:29:04;6.70;;;2.00;;
74749;SDS011;63269;53.330;-6.288;2023-09-19T15:31:33;6.25;;;1.25;;
74749;SDS011;63269;53.330;-6.288;2023-09-19T15:33:58;5.38;;;1.63;;
74749;SDS011;63269;53.330;-6.288;2023-09-19T15:36:24;8.20;;;1.80;;
74749;SDS011;63269;53.330;-6.288;2023-09-19T15:38:59;6.28;;;2.00;;
74749;SDS011;63269;53.330;-6.288;2023-09-19T15:41:27;4.68;;;1.42;;
74749;SDS011;63269;53.330;-6.288;2023-09-19T15:43:55;5.22;;;1.75;;
74749;SDS011;63269;53.330;-6.288;2023-09-19T15:46:21;8.40;;;2.22;;